Raugust, Washington
Current Conditions -  °F | °C
As of 9:52 PM on Friday 28 Nov 2014 (Local Time) from KMWH Reporting Station
Overcast Overcast  
Wind Chill:   Ceiling: 6000
Heat Index:   Visibility: 10mi
Dew Point:   Wind: 13mph
Humidity: 66%   Direction: 210°SSW
Pressure: 29.31"   Gusts: NA
Location:  47.1758°N, 119.289°W
Report Text: KMWH 290552Z 21011KT 10SM BKN060 OVC110 08/02 A2931 RMK AO2 SLP925 60003 T00780017 10133 20078 51009
Loading
Personal Weather Stations






























Interactive Weather Map New forecast layout! Learn more

10-Day Weather Forecast

Advertisements
Track Severe Weather on mobile